NSZ3089 EKYT-EKCH
Flight info
| Callsign | NSZ3089 |
|---|---|
| Flight time | 0h 33m |
| Altitude | 15000 |
| Route | AAL M725 ADSEN DCT TNO |
| Aircraft | B738/M-SDE2E3GHILRWXY/LB1 |
Departure
| Time | 2026-05-04 12:23 |
|---|---|
| Airport | Aalborg Airport (EKYT) |
Arrival
| Time | 2026-05-04 12:57 |
|---|---|
| Airport | Copenhagen Kastrup Airport (EKCH) |
| Time | Latitude | Longitude | Altitude | Speed | Heading |
|---|---|---|---|---|---|
| 2026-05-04 11:42 | 57.08704 | 9.86973 | 18 ft | 0 kts | 55° |
| 2026-05-04 12:11 | 57.08696 | 9.86943 | 18 ft | 4 kts | 67° |
| 2026-05-04 12:11 | 57.08685 | 9.86906 | 18 ft | 4 kts | 40° |
| 2026-05-04 12:12 | 57.08663 | 9.86892 | 18 ft | 4 kts | 348° |
| 2026-05-04 12:12 | 57.08639 | 9.86911 | 18 ft | 4 kts | 324° |
| 2026-05-04 12:12 | 57.08623 | 9.86935 | 18 ft | 1 kts | 315° |
| 2026-05-04 12:12 | 57.08621 | 9.86940 | 18 ft | 0 kts | 315° |
| 2026-05-04 12:15 | 57.08624 | 9.86934 | 18 ft | 3 kts | 315° |
| 2026-05-04 12:15 | 57.08638 | 9.86909 | 18 ft | 6 kts | 315° |
| 2026-05-04 12:15 | 57.08688 | 9.86823 | 18 ft | 8 kts | 317° |
| 2026-05-04 12:15 | 57.08726 | 9.86760 | 18 ft | 7 kts | 320° |
| 2026-05-04 12:16 | 57.08764 | 9.86703 | 18 ft | 7 kts | 321° |
| 2026-05-04 12:16 | 57.08801 | 9.86649 | 18 ft | 7 kts | 322° |
| 2026-05-04 12:16 | 57.08838 | 9.86596 | 18 ft | 7 kts | 322° |
| 2026-05-04 12:16 | 57.08878 | 9.86539 | 18 ft | 8 kts | 322° |
| 2026-05-04 12:17 | 57.08906 | 9.86497 | 18 ft | 8 kts | 322° |
| 2026-05-04 12:17 | 57.08953 | 9.86430 | 18 ft | 9 kts | 322° |
| 2026-05-04 12:17 | 57.09004 | 9.86357 | 18 ft | 10 kts | 322° |
| 2026-05-04 12:17 | 57.09058 | 9.86281 | 18 ft | 10 kts | 322° |
| 2026-05-04 12:18 | 57.09115 | 9.86201 | 18 ft | 10 kts | 323° |
| 2026-05-04 12:18 | 57.09175 | 9.86119 | 18 ft | 11 kts | 323° |
| 2026-05-04 12:18 | 57.09236 | 9.86034 | 18 ft | 11 kts | 322° |
| 2026-05-04 12:18 | 57.09300 | 9.85946 | 18 ft | 11 kts | 327° |
| 2026-05-04 12:19 | 57.09351 | 9.86023 | 18 ft | 13 kts | 79° |
| 2026-05-04 12:19 | 57.09363 | 9.86197 | 18 ft | 15 kts | 83° |
| 2026-05-04 12:19 | 57.09375 | 9.86396 | 18 ft | 17 kts | 84° |
| 2026-05-04 12:19 | 57.09389 | 9.86619 | 18 ft | 18 kts | 83° |
| 2026-05-04 12:20 | 57.09405 | 9.86863 | 18 ft | 20 kts | 83° |
| 2026-05-04 12:20 | 57.09422 | 9.87127 | 18 ft | 22 kts | 83° |
| 2026-05-04 12:20 | 57.09441 | 9.87406 | 18 ft | 22 kts | 83° |
| 2026-05-04 12:20 | 57.09459 | 9.87653 | 18 ft | 18 kts | 65° |
| 2026-05-04 12:21 | 57.09549 | 9.87741 | 18 ft | 0 kts | 351° |
| 2026-05-04 12:21 | 57.09553 | 9.87740 | 18 ft | 2 kts | 351° |
| 2026-05-04 12:21 | 57.09584 | 9.87722 | 18 ft | 7 kts | 335° |
| 2026-05-04 12:21 | 57.09630 | 9.87660 | 18 ft | 9 kts | 319° |
| 2026-05-04 12:22 | 57.09643 | 9.87607 | 18 ft | 0 kts | 265° |
| 2026-05-04 12:22 | 57.09642 | 9.87599 | 18 ft | 9 kts | 265° |
| 2026-05-04 12:22 | 57.09607 | 9.87041 | 18 ft | 79 kts | 263° |
| 2026-05-04 12:22 | 57.09518 | 9.85666 | 18 ft | 138 kts | 265° |
| 2026-05-04 12:23 | 57.09403 | 9.83715 | 373 ft | 163 kts | 264° |
| 2026-05-04 12:23 | 57.09242 | 9.81526 | 812 ft | 184 kts | 259° |
| 2026-05-04 12:23 | 57.08562 | 9.79372 | 1056 ft | 209 kts | 226° |
| 2026-05-04 12:23 | 57.07191 | 9.78172 | 1272 ft | 233 kts | 193° |
| 2026-05-04 12:24 | 57.05532 | 9.78510 | 1560 ft | 250 kts | 162° |
| 2026-05-04 12:24 | 57.03996 | 9.80188 | 1966 ft | 260 kts | 147° |
| 2026-05-04 12:24 | 57.02538 | 9.82099 | 2836 ft | 256 kts | 147° |
| 2026-05-04 12:24 | 57.01071 | 9.84056 | 3581 ft | 268 kts | 147° |
| 2026-05-04 12:25 | 56.99514 | 9.86086 | 4257 ft | 280 kts | 148° |
| 2026-05-04 12:25 | 56.97905 | 9.88145 | 5115 ft | 284 kts | 148° |
| 2026-05-04 12:25 | 56.96268 | 9.90213 | 5993 ft | 288 kts | 148° |
| 2026-05-04 12:25 | 56.94604 | 9.92292 | 6854 ft | 291 kts | 148° |
| 2026-05-04 12:26 | 56.92942 | 9.94359 | 7708 ft | 294 kts | 149° |
| 2026-05-04 12:26 | 56.91229 | 9.96471 | 8514 ft | 298 kts | 149° |
| 2026-05-04 12:26 | 56.89490 | 9.98607 | 9330 ft | 302 kts | 149° |
| 2026-05-04 12:26 | 56.87738 | 10.00752 | 10129 ft | 305 kts | 150° |
| 2026-05-04 12:27 | 56.85955 | 10.02929 | 10822 ft | 313 kts | 151° |
| 2026-05-04 12:27 | 56.84088 | 10.05202 | 11215 ft | 331 kts | 151° |
| 2026-05-04 12:27 | 56.82114 | 10.07601 | 11631 ft | 347 kts | 151° |
| 2026-05-04 12:27 | 56.80082 | 10.10068 | 12299 ft | 353 kts | 151° |
| 2026-05-04 12:28 | 56.78028 | 10.12555 | 13095 ft | 355 kts | 151° |
| 2026-05-04 12:28 | 56.75970 | 10.15056 | 13930 ft | 355 kts | 151° |
| 2026-05-04 12:28 | 56.73923 | 10.17595 | 14543 ft | 358 kts | 151° |
| 2026-05-04 12:28 | 56.71859 | 10.20134 | 14858 ft | 357 kts | 151° |
| 2026-05-04 12:29 | 56.69824 | 10.22619 | 14924 ft | 356 kts | 152° |
| 2026-05-04 12:29 | 56.67763 | 10.25122 | 14924 ft | 354 kts | 152° |
| 2026-05-04 12:29 | 56.65713 | 10.27606 | 14925 ft | 353 kts | 152° |
| 2026-05-04 12:29 | 56.63661 | 10.30083 | 14925 ft | 353 kts | 152° |
| 2026-05-04 12:30 | 56.61616 | 10.32548 | 14927 ft | 353 kts | 152° |
| 2026-05-04 12:30 | 56.59566 | 10.35016 | 14926 ft | 353 kts | 152° |
| 2026-05-04 12:30 | 56.57520 | 10.37474 | 14927 ft | 353 kts | 152° |
| 2026-05-04 12:30 | 56.55472 | 10.39931 | 14928 ft | 353 kts | 152° |
| 2026-05-04 12:31 | 56.53420 | 10.42389 | 14929 ft | 353 kts | 152° |
| 2026-05-04 12:31 | 56.51371 | 10.44840 | 14930 ft | 353 kts | 152° |
| 2026-05-04 12:31 | 56.49317 | 10.47291 | 14931 ft | 353 kts | 152° |
| 2026-05-04 12:31 | 56.47258 | 10.49747 | 14931 ft | 354 kts | 152° |
| 2026-05-04 12:32 | 56.45202 | 10.52189 | 14933 ft | 352 kts | 152° |
| 2026-05-04 12:32 | 56.41104 | 10.57079 | 14933 ft | 353 kts | 152° |
| 2026-05-04 12:32 | 56.39088 | 10.59518 | 14936 ft | 353 kts | 152° |
| 2026-05-04 12:33 | 56.37040 | 10.61966 | 14934 ft | 353 kts | 152° |
| 2026-05-04 12:33 | 56.34986 | 10.64404 | 14936 ft | 352 kts | 152° |
| 2026-05-04 12:33 | 56.32929 | 10.66831 | 14933 ft | 353 kts | 152° |
| 2026-05-04 12:33 | 56.30867 | 10.69258 | 14934 ft | 352 kts | 152° |
| 2026-05-04 12:34 | 56.28812 | 10.71667 | 14935 ft | 352 kts | 153° |
| 2026-05-04 12:34 | 56.26759 | 10.74074 | 14934 ft | 352 kts | 153° |
| 2026-05-04 12:34 | 56.24707 | 10.76474 | 14934 ft | 352 kts | 153° |
| 2026-05-04 12:34 | 56.22649 | 10.78884 | 14935 ft | 352 kts | 153° |
| 2026-05-04 12:35 | 56.20593 | 10.81286 | 14935 ft | 352 kts | 153° |
| 2026-05-04 12:35 | 56.18540 | 10.83683 | 14936 ft | 352 kts | 153° |
| 2026-05-04 12:35 | 56.16486 | 10.86080 | 14935 ft | 352 kts | 153° |
| 2026-05-04 12:35 | 56.14464 | 10.88478 | 14935 ft | 353 kts | 150° |
| 2026-05-04 12:36 | 56.12502 | 10.91160 | 14936 ft | 356 kts | 146° |
| 2026-05-04 12:36 | 56.10603 | 10.94015 | 14936 ft | 357 kts | 144° |
| 2026-05-04 12:36 | 56.08731 | 10.96932 | 14936 ft | 357 kts | 144° |
| 2026-05-04 12:36 | 56.06850 | 10.99830 | 14937 ft | 356 kts | 145° |
| 2026-05-04 12:37 | 56.04962 | 11.02703 | 14937 ft | 356 kts | 145° |
| 2026-05-04 12:37 | 56.03045 | 11.05602 | 14937 ft | 356 kts | 145° |
| 2026-05-04 12:37 | 56.01181 | 11.08454 | 14937 ft | 357 kts | 144° |
| 2026-05-04 12:37 | 55.99304 | 11.11354 | 14938 ft | 356 kts | 145° |
| 2026-05-04 12:38 | 55.97421 | 11.14214 | 14938 ft | 355 kts | 145° |
| 2026-05-04 12:38 | 55.95526 | 11.17062 | 14938 ft | 355 kts | 146° |
| 2026-05-04 12:38 | 55.93631 | 11.19892 | 14938 ft | 355 kts | 146° |
| 2026-05-04 12:38 | 55.91727 | 11.22727 | 14938 ft | 355 kts | 146° |
| 2026-05-04 12:39 | 55.89833 | 11.25541 | 14938 ft | 354 kts | 146° |
| 2026-05-04 12:39 | 55.87938 | 11.28350 | 14938 ft | 354 kts | 146° |
| 2026-05-04 12:39 | 55.86043 | 11.31156 | 14938 ft | 354 kts | 146° |
| 2026-05-04 12:39 | 55.84146 | 11.33963 | 14937 ft | 353 kts | 146° |
| 2026-05-04 12:40 | 55.82282 | 11.36718 | 14933 ft | 341 kts | 146° |
| 2026-05-04 12:40 | 55.80481 | 11.39379 | 14929 ft | 333 kts | 146° |
| 2026-05-04 12:40 | 55.78797 | 11.42108 | 14914 ft | 334 kts | 136° |
| 2026-05-04 12:40 | 55.77590 | 11.45664 | 14901 ft | 341 kts | 115° |
| 2026-05-04 12:41 | 55.77011 | 11.49770 | 14711 ft | 344 kts | 101° |
| 2026-05-04 12:41 | 55.76764 | 11.53995 | 14463 ft | 344 kts | 96° |
| 2026-05-04 12:41 | 55.76595 | 11.58232 | 14144 ft | 343 kts | 96° |
| 2026-05-04 12:41 | 55.76389 | 11.62437 | 13815 ft | 342 kts | 97° |
| 2026-05-04 12:42 | 55.76158 | 11.66631 | 13536 ft | 340 kts | 98° |
| 2026-05-04 12:42 | 55.75915 | 11.70801 | 13208 ft | 339 kts | 98° |
| 2026-05-04 12:42 | 55.75672 | 11.74952 | 12922 ft | 336 kts | 98° |
| 2026-05-04 12:42 | 55.75429 | 11.79076 | 12618 ft | 335 kts | 98° |
| 2026-05-04 12:43 | 55.75188 | 11.83186 | 12304 ft | 334 kts | 98° |
| 2026-05-04 12:43 | 55.74955 | 11.87226 | 12008 ft | 333 kts | 97° |
| 2026-05-04 12:43 | 55.74721 | 11.91330 | 11613 ft | 335 kts | 97° |
| 2026-05-04 12:43 | 55.74477 | 11.95465 | 11149 ft | 327 kts | 97° |
| 2026-05-04 12:44 | 55.74238 | 11.99432 | 10695 ft | 319 kts | 97° |
| 2026-05-04 12:44 | 55.74005 | 12.03275 | 10247 ft | 314 kts | 97° |
| 2026-05-04 12:44 | 55.73772 | 12.07111 | 9799 ft | 310 kts | 97° |
| 2026-05-04 12:44 | 55.73542 | 12.10900 | 9348 ft | 307 kts | 96° |
| 2026-05-04 12:45 | 55.73321 | 12.14660 | 8897 ft | 304 kts | 96° |
| 2026-05-04 12:45 | 55.73093 | 12.18375 | 8444 ft | 301 kts | 96° |
| 2026-05-04 12:45 | 55.72868 | 12.22019 | 7999 ft | 299 kts | 96° |
| 2026-05-04 12:45 | 55.72643 | 12.25640 | 7546 ft | 292 kts | 96° |
| 2026-05-04 12:46 | 55.72422 | 12.29193 | 7089 ft | 285 kts | 96° |
| 2026-05-04 12:46 | 55.72212 | 12.32660 | 6638 ft | 280 kts | 96° |
| 2026-05-04 12:46 | 55.72003 | 12.36063 | 6189 ft | 275 kts | 96° |
| 2026-05-04 12:46 | 55.71789 | 12.39435 | 5746 ft | 277 kts | 96° |
| 2026-05-04 12:47 | 55.71570 | 12.42894 | 5294 ft | 284 kts | 96° |
| 2026-05-04 12:47 | 55.71341 | 12.46400 | 4847 ft | 289 kts | 96° |
| 2026-05-04 12:47 | 55.71307 | 12.49986 | 4396 ft | 293 kts | 82° |
| 2026-05-04 12:47 | 55.71794 | 12.53481 | 4152 ft | 288 kts | 69° |
| 2026-05-04 12:48 | 55.72555 | 12.56693 | 4069 ft | 276 kts | 60° |
| 2026-05-04 12:48 | 55.73420 | 12.59651 | 4001 ft | 265 kts | 58° |
| 2026-05-04 12:48 | 55.74291 | 12.62467 | 3905 ft | 254 kts | 55° |
| 2026-05-04 12:48 | 55.75333 | 12.64900 | 3658 ft | 248 kts | 43° |
| 2026-05-04 12:49 | 55.76558 | 12.67002 | 3443 ft | 241 kts | 37° |
| 2026-05-04 12:49 | 55.77813 | 12.68946 | 3193 ft | 237 kts | 36° |
| 2026-05-04 12:49 | 55.79048 | 12.70850 | 3004 ft | 232 kts | 36° |
| 2026-05-04 12:49 | 55.80257 | 12.72730 | 2973 ft | 229 kts | 36° |
| 2026-05-04 12:50 | 55.81452 | 12.74595 | 2976 ft | 227 kts | 36° |
| 2026-05-04 12:50 | 55.82454 | 12.76710 | 2911 ft | 223 kts | 58° |
| 2026-05-04 12:50 | 55.82831 | 12.79320 | 2930 ft | 215 kts | 84° |
| 2026-05-04 12:50 | 55.82553 | 12.81846 | 2946 ft | 209 kts | 114° |
| 2026-05-04 12:51 | 55.81786 | 12.83997 | 2982 ft | 206 kts | 131° |
| 2026-05-04 12:51 | 55.80841 | 12.85915 | 2997 ft | 206 kts | 136° |
| 2026-05-04 12:51 | 55.79840 | 12.87730 | 2976 ft | 204 kts | 144° |
| 2026-05-04 12:51 | 55.78571 | 12.88579 | 2886 ft | 190 kts | 185° |
| 2026-05-04 12:52 | 55.77324 | 12.88100 | 2987 ft | 181 kts | 207° |
| 2026-05-04 12:52 | 55.76217 | 12.87081 | 3011 ft | 178 kts | 218° |
| 2026-05-04 12:52 | 55.75205 | 12.85843 | 3002 ft | 176 kts | 222° |
| 2026-05-04 12:52 | 55.74200 | 12.84579 | 2951 ft | 177 kts | 222° |
| 2026-05-04 12:53 | 55.73218 | 12.83241 | 2758 ft | 179 kts | 224° |
| 2026-05-04 12:53 | 55.72266 | 12.81828 | 2524 ft | 175 kts | 226° |
| 2026-05-04 12:53 | 55.71375 | 12.80465 | 2292 ft | 164 kts | 227° |
| 2026-05-04 12:53 | 55.70541 | 12.79176 | 2070 ft | 158 kts | 227° |
| 2026-05-04 12:54 | 55.69725 | 12.77910 | 1866 ft | 155 kts | 227° |
| 2026-05-04 12:54 | 55.68920 | 12.76660 | 1664 ft | 152 kts | 227° |
| 2026-05-04 12:54 | 55.68140 | 12.75449 | 1467 ft | 146 kts | 227° |
| 2026-05-04 12:54 | 55.67381 | 12.74269 | 1284 ft | 144 kts | 225° |
| 2026-05-04 12:55 | 55.66625 | 12.73095 | 1088 ft | 144 kts | 226° |
| 2026-05-04 12:55 | 55.65869 | 12.71920 | 901 ft | 145 kts | 226° |
| 2026-05-04 12:55 | 55.65112 | 12.70746 | 748 ft | 144 kts | 226° |
| 2026-05-04 12:55 | 55.64369 | 12.69593 | 526 ft | 143 kts | 225° |
| 2026-05-04 12:56 | 55.63615 | 12.68424 | 329 ft | 143 kts | 225° |
| 2026-05-04 12:56 | 55.62869 | 12.67267 | 134 ft | 144 kts | 226° |
| 2026-05-04 12:56 | 55.62118 | 12.66103 | 26 ft | 137 kts | 226° |
| 2026-05-04 12:56 | 55.61537 | 12.65203 | 25 ft | 71 kts | 224° |
| 2026-05-04 12:57 | 55.61303 | 12.64787 | 25 ft | 43 kts | 241° |
| 2026-05-04 12:57 | 55.61203 | 12.64344 | 25 ft | 35 kts | 252° |
| 2026-05-04 12:57 | 55.61244 | 12.64106 | 25 ft | 19 kts | 347° |
| 2026-05-04 12:57 | 55.61311 | 12.64140 | 25 ft | 11 kts | 33° |
| 2026-05-04 12:58 | 55.61368 | 12.64206 | 25 ft | 0 kts | 39° |
| 2026-05-04 12:58 | 55.61378 | 12.64218 | 25 ft | 6 kts | 33° |
| 2026-05-04 12:58 | 55.61411 | 12.64255 | 25 ft | 11 kts | 31° |
| 2026-05-04 12:58 | 55.61474 | 12.64327 | 25 ft | 10 kts | 34° |
| 2026-05-04 12:59 | 55.61534 | 12.64395 | 25 ft | 10 kts | 32° |
| 2026-05-04 12:59 | 55.61596 | 12.64464 | 25 ft | 12 kts | 33° |
| 2026-05-04 12:59 | 55.61681 | 12.64554 | 25 ft | 15 kts | 14° |
| 2026-05-04 12:59 | 55.61778 | 12.64542 | 25 ft | 14 kts | 349° |
| 2026-05-04 13:00 | 55.61868 | 12.64513 | 25 ft | 13 kts | 350° |
| 2026-05-04 13:00 | 55.61965 | 12.64483 | 25 ft | 15 kts | 350° |
| 2026-05-04 13:00 | 55.62064 | 12.64452 | 25 ft | 8 kts | 349° |
| 2026-05-04 13:00 | 55.62086 | 12.64444 | 25 ft | 0 kts | 348° |
| 2026-05-04 13:01 | 55.62099 | 12.64439 | 25 ft | 7 kts | 348° |
| 2026-05-04 13:01 | 55.62181 | 12.64410 | 25 ft | 15 kts | 348° |
| 2026-05-04 13:01 | 55.62263 | 12.64321 | 25 ft | 14 kts | 306° |
| 2026-05-04 13:01 | 55.62315 | 12.64180 | 25 ft | 13 kts | 303° |
| 2026-05-04 13:02 | 55.62365 | 12.64049 | 25 ft | 13 kts | 304° |
| 2026-05-04 13:02 | 55.62413 | 12.63922 | 25 ft | 12 kts | 303° |
| 2026-05-04 13:02 | 55.62459 | 12.63798 | 25 ft | 12 kts | 304° |
| 2026-05-04 13:02 | 55.62509 | 12.63663 | 25 ft | 14 kts | 302° |
| 2026-05-04 13:03 | 55.62568 | 12.63532 | 25 ft | 13 kts | 328° |
| 2026-05-04 13:03 | 55.62599 | 12.63509 | 25 ft | 0 kts | 343° |
| 2026-05-04 13:03 | 55.62615 | 12.63503 | 25 ft | 6 kts | 353° |
| 2026-05-04 13:03 | 55.62673 | 12.63460 | 25 ft | 12 kts | 316° |
| 2026-05-04 13:04 | 55.62729 | 12.63330 | 25 ft | 14 kts | 322° |
| 2026-05-04 13:04 | 55.62817 | 12.63363 | 25 ft | 13 kts | 33° |
| 2026-05-04 13:04 | 55.62856 | 12.63484 | 25 ft | 11 kts | 83° |
| 2026-05-04 13:04 | 55.62859 | 12.63621 | 25 ft | 11 kts | 87° |
| 2026-05-04 13:05 | 55.62857 | 12.63737 | 25 ft | 4 kts | 101° |
| 2026-05-04 13:05 | 55.62857 | 12.63776 | 25 ft | 3 kts | 62° |
| 2026-05-04 13:05 | 55.62875 | 12.63792 | 25 ft | 3 kts | 17° |
| 2026-05-04 13:05 | 55.62895 | 12.63803 | 25 ft | 3 kts | 18° |
| 2026-05-04 13:06 | 55.62901 | 12.63807 | 25 ft | 0 kts | 17° |